sensor_id;sensor_type;location;lat;lon;timestamp;pressure;altitude;pressure_sealevel;temperature;humidity
22753;BME280;11543;43.144;24.684;2023-03-20T00:01:27;99147.13;;;8.29;64.79
22753;BME280;11543;43.144;24.684;2023-03-20T00:03:54;99145.84;;;8.03;65.41
22753;BME280;11543;43.144;24.684;2023-03-20T00:06:22;99142.22;;;8.04;65.82
22753;BME280;11543;43.144;24.684;2023-03-20T00:08:50;99135.16;;;8.03;66.45
22753;BME280;11543;43.144;24.684;2023-03-20T00:14:00;99132.69;;;8.11;66.88
22753;BME280;11543;43.144;24.684;2023-03-20T00:16:32;99124.59;;;8.22;67.02
22753;BME280;11543;43.144;24.684;2023-03-20T00:18:58;99133.97;;;8.38;66.70
22753;BME280;11543;43.144;24.684;2023-03-20T00:21:23;99117.66;;;8.41;66.67
22753;BME280;11543;43.144;24.684;2023-03-20T00:23:49;99113.47;;;8.48;65.89
22753;BME280;11543;43.144;24.684;2023-03-20T00:26:16;99109.25;;;8.55;65.42
22753;BME280;11543;43.144;24.684;2023-03-20T00:28:45;99105.34;;;8.59;65.05
22753;BME280;11543;43.144;24.684;2023-03-20T00:31:32;99115.25;;;8.68;64.82
22753;BME280;11543;43.144;24.684;2023-03-20T00:34:01;99109.91;;;8.68;64.58
22753;BME280;11543;43.144;24.684;2023-03-20T00:36:27;99103.56;;;8.69;64.20
22753;BME280;11543;43.144;24.684;2023-03-20T00:38:52;99104.78;;;8.65;64.60
22753;BME280;11543;43.144;24.684;2023-03-20T00:46:44;99115.31;;;8.57;64.58
22753;BME280;11543;43.144;24.684;2023-03-20T00:49:10;99102.78;;;8.48;64.68
22753;BME280;11543;43.144;24.684;2023-03-20T00:51:36;99100.19;;;8.37;64.81
22753;BME280;11543;43.144;24.684;2023-03-20T00:54:09;99102.94;;;8.25;65.36
22753;BME280;11543;43.144;24.684;2023-03-20T00:56:40;99103.47;;;8.19;65.59
22753;BME280;11543;43.144;24.684;2023-03-20T00:59:14;99099.94;;;8.19;65.51
22753;BME280;11543;43.144;24.684;2023-03-20T01:01:41;99104.09;;;8.32;65.54
22753;BME280;11543;43.144;24.684;2023-03-20T01:04:16;99100.97;;;8.27;65.28
22753;BME280;11543;43.144;24.684;2023-03-20T01:06:43;99090.72;;;8.02;65.72
22753;BME280;11543;43.144;24.684;2023-03-20T01:09:09;99086.75;;;7.96;66.26
22753;BME280;11543;43.144;24.684;2023-03-20T01:11:35;99080.25;;;7.89;66.64
22753;BME280;11543;43.144;24.684;2023-03-20T01:14:01;99088.81;;;7.83;66.91
22753;BME280;11543;43.144;24.684;2023-03-20T01:16:27;99086.03;;;7.74;66.96
22753;BME280;11543;43.144;24.684;2023-03-20T01:18:54;99086.31;;;7.71;67.26
22753;BME280;11543;43.144;24.684;2023-03-20T01:21:20;99072.22;;;7.68;67.46
22753;BME280;11543;43.144;24.684;2023-03-20T01:23:46;99080.16;;;7.80;67.67
22753;BME280;11543;43.144;24.684;2023-03-20T01:26:34;99074.84;;;7.80;66.87
22753;BME280;11543;43.144;24.684;2023-03-20T01:29:01;99075.09;;;7.56;67.12
22753;BME280;11543;43.144;24.684;2023-03-20T01:31:26;99069.25;;;7.41;67.90
22753;BME280;11543;43.144;24.684;2023-03-20T01:33:52;99066.91;;;7.27;67.89
22753;BME280;11543;43.144;24.684;2023-03-20T01:36:21;99074.44;;;7.22;68.49
22753;BME280;11543;43.144;24.684;2023-03-20T01:38:57;99067.13;;;7.03;69.02
22753;BME280;11543;43.144;24.684;2023-03-20T01:41:24;99063.16;;;6.86;69.51
22753;BME280;11543;43.144;24.684;2023-03-20T01:43:51;99068.50;;;6.86;69.21
22753;BME280;11543;43.144;24.684;2023-03-20T01:51:14;99072.47;;;7.03;70.94
22753;BME280;11543;43.144;24.684;2023-03-20T01:53:40;99064.63;;;7.22;70.44
22753;BME280;11543;43.144;24.684;2023-03-20T01:56:06;99058.84;;;7.38;69.73
22753;BME280;11543;43.144;24.684;2023-03-20T01:58:36;99063.84;;;7.52;69.23
22753;BME280;11543;43.144;24.684;2023-03-20T02:01:04;99061.63;;;7.57;68.89
22753;BME280;11543;43.144;24.684;2023-03-20T02:03:33;99062.09;;;7.62;68.72
22753;BME280;11543;43.144;24.684;2023-03-20T02:05:58;99062.28;;;7.71;68.25
22753;BME280;11543;43.144;24.684;2023-03-20T02:08:29;99055.09;;;7.71;67.98
22753;BME280;11543;43.144;24.684;2023-03-20T02:10:58;99058.81;;;7.80;67.99
22753;BME280;11543;43.144;24.684;2023-03-20T02:13:29;99058.31;;;7.86;67.61
22753;BME280;11543;43.144;24.684;2023-03-20T02:18:24;99054.69;;;7.96;67.08
22753;BME280;11543;43.144;24.684;2023-03-20T02:23:56;99049.94;;;8.00;66.58
22753;BME280;11543;43.144;24.684;2023-03-20T02:26:45;99068.19;;;7.95;66.66
22753;BME280;11543;43.144;24.684;2023-03-20T02:41:43;99057.38;;;7.76;67.31
22753;BME280;11543;43.144;24.684;2023-03-20T02:44:23;99052.03;;;7.76;67.05
22753;BME280;11543;43.144;24.684;2023-03-20T02:47:03;99061.25;;;7.83;66.46
22753;BME280;11543;43.144;24.684;2023-03-20T02:49:43;99053.22;;;7.83;66.57
22753;BME280;11543;43.144;24.684;2023-03-20T02:52:15;99054.94;;;7.84;66.48
22753;BME280;11543;43.144;24.684;2023-03-20T03:00:05;99051.28;;;7.85;66.64
22753;BME280;11543;43.144;24.684;2023-03-20T03:02:59;99044.41;;;7.92;66.59
22753;BME280;11543;43.144;24.684;2023-03-20T03:05:43;99041.75;;;7.92;66.51
22753;BME280;11543;43.144;24.684;2023-03-20T03:08:12;99052.88;;;7.97;66.25
22753;BME280;11543;43.144;24.684;2023-03-20T03:10:46;99053.47;;;7.80;66.25
22753;BME280;11543;43.144;24.684;2023-03-20T03:13:21;99048.38;;;7.77;66.68
22753;BME280;11543;43.144;24.684;2023-03-20T03:15:53;99049.09;;;7.79;66.09
22753;BME280;11543;43.144;24.684;2023-03-20T03:18:22;99056.63;;;7.85;66.21
22753;BME280;11543;43.144;24.684;2023-03-20T03:20:54;99052.69;;;7.89;65.77
22753;BME280;11543;43.144;24.684;2023-03-20T03:23:28;99039.03;;;7.82;65.85
22753;BME280;11543;43.144;24.684;2023-03-20T03:25:56;99047.88;;;7.83;65.80
22753;BME280;11543;43.144;24.684;2023-03-20T03:28:49;99053.81;;;7.86;65.72
22753;BME280;11543;43.144;24.684;2023-03-20T03:31:16;99055.19;;;7.81;65.87
22753;BME280;11543;43.144;24.684;2023-03-20T03:33:51;99050.94;;;7.78;65.79
22753;BME280;11543;43.144;24.684;2023-03-20T03:42:07;99049.84;;;7.81;66.07
22753;BME280;11543;43.144;24.684;2023-03-20T03:45:08;99049.06;;;7.69;66.18
22753;BME280;11543;43.144;24.684;2023-03-20T03:47:44;99052.91;;;7.55;66.97
22753;BME280;11543;43.144;24.684;2023-03-20T03:50:24;99053.34;;;7.60;66.41
22753;BME280;11543;43.144;24.684;2023-03-20T03:52:53;99052.13;;;7.64;66.59
22753;BME280;11543;43.144;24.684;2023-03-20T03:55:28;99055.06;;;7.61;66.17
22753;BME280;11543;43.144;24.684;2023-03-20T03:58:03;99050.88;;;7.27;66.59
22753;BME280;11543;43.144;24.684;2023-03-20T04:00:31;99057.75;;;7.09;67.35
22753;BME280;11543;43.144;24.684;2023-03-20T04:02:58;99052.75;;;6.83;67.81
22753;BME280;11543;43.144;24.684;2023-03-20T04:05:27;99062.94;;;6.78;68.60
22753;BME280;11543;43.144;24.684;2023-03-20T04:07:56;99060.28;;;6.78;69.70
22753;BME280;11543;43.144;24.684;2023-03-20T04:10:22;99059.50;;;6.87;69.81
22753;BME280;11543;43.144;24.684;2023-03-20T04:12:48;99059.97;;;7.03;69.17
22753;BME280;11543;43.144;24.684;2023-03-20T04:15:15;99050.47;;;7.11;69.45
22753;BME280;11543;43.144;24.684;2023-03-20T04:17:41;99051.91;;;7.15;68.90
22753;BME280;11543;43.144;24.684;2023-03-20T04:20:09;99053.34;;;7.19;69.10
22753;BME280;11543;43.144;24.684;2023-03-20T04:22:35;99045.81;;;7.24;68.72
22753;BME280;11543;43.144;24.684;2023-03-20T04:25:02;99045.28;;;7.30;68.43
22753;BME280;11543;43.144;24.684;2023-03-20T04:27:28;99057.13;;;7.37;68.00
22753;BME280;11543;43.144;24.684;2023-03-20T04:29:54;99051.53;;;7.40;67.94
22753;BME280;11543;43.144;24.684;2023-03-20T04:32:20;99053.81;;;7.45;67.97
22753;BME280;11543;43.144;24.684;2023-03-20T04:34:46;99051.88;;;7.47;68.01
22753;BME280;11543;43.144;24.684;2023-03-20T04:37:12;99049.06;;;7.48;67.36
22753;BME280;11543;43.144;24.684;2023-03-20T04:39:38;99049.06;;;7.48;67.36
22753;BME280;11543;43.144;24.684;2023-03-20T04:42:04;99057.53;;;7.53;67.33
22753;BME280;11543;43.144;24.684;2023-03-20T04:44:30;99057.78;;;7.50;67.59
22753;BME280;11543;43.144;24.684;2023-03-20T04:46:56;99052.06;;;7.34;67.92
22753;BME280;11543;43.144;24.684;2023-03-20T04:49:21;99054.78;;;7.23;68.12
22753;BME280;11543;43.144;24.684;2023-03-20T04:51:47;99054.53;;;7.26;68.23
22753;BME280;11543;43.144;24.684;2023-03-20T04:54:12;99052.44;;;7.29;68.51
22753;BME280;11543;43.144;24.684;2023-03-20T04:56:38;99066.91;;;7.27;68.59
22753;BME280;11543;43.144;24.684;2023-03-20T04:59:03;99057.47;;;7.23;68.96
22753;BME280;11543;43.144;24.684;2023-03-20T05:01:29;99064.66;;;7.11;68.46
22753;BME280;11543;43.144;24.684;2023-03-20T05:03:54;99057.56;;;6.89;68.66
22753;BME280;11543;43.144;24.684;2023-03-20T05:06:26;99060.88;;;6.82;69.48
22753;BME280;11543;43.144;24.684;2023-03-20T05:08:51;99072.88;;;6.76;70.15
22753;BME280;11543;43.144;24.684;2023-03-20T05:11:17;99072.66;;;6.68;70.74
22753;BME280;11543;43.144;24.684;2023-03-20T05:13:42;99069.75;;;6.71;71.13
22753;BME280;11543;43.144;24.684;2023-03-20T05:16:08;99073.81;;;6.86;72.06
22753;BME280;11543;43.144;24.684;2023-03-20T05:18:34;99076.97;;;6.91;71.75
22753;BME280;11543;43.144;24.684;2023-03-20T05:20:59;99075.25;;;6.90;72.14
22753;BME280;11543;43.144;24.684;2023-03-20T05:23:25;99081.56;;;7.00;71.92
22753;BME280;11543;43.144;24.684;2023-03-20T05:25:51;99080.34;;;6.93;72.52
22753;BME280;11543;43.144;24.684;2023-03-20T05:28:16;99079.38;;;7.06;71.97
22753;BME280;11543;43.144;24.684;2023-03-20T05:30:42;99071.31;;;7.17;72.15
22753;BME280;11543;43.144;24.684;2023-03-20T05:33:10;99086.63;;;7.35;71.66
22753;BME280;11543;43.144;24.684;2023-03-20T05:35:36;99090.94;;;7.48;71.33
22753;BME280;11543;43.144;24.684;2023-03-20T05:38:01;99090.03;;;7.58;70.64
22753;BME280;11543;43.144;24.684;2023-03-20T05:40:28;99087.41;;;7.68;70.66
22753;BME280;11543;43.144;24.684;2023-03-20T05:42:53;99094.41;;;7.80;69.93
22753;BME280;11543;43.144;24.684;2023-03-20T05:45:19;99089.69;;;7.93;70.25
22753;BME280;11543;43.144;24.684;2023-03-20T05:47:44;99094.56;;;8.09;70.65
22753;BME280;11543;43.144;24.684;2023-03-20T05:50:12;99086.00;;;8.15;69.92
22753;BME280;11543;43.144;24.684;2023-03-20T05:52:38;99102.41;;;8.31;69.91
22753;BME280;11543;43.144;24.684;2023-03-20T05:55:04;99094.31;;;8.43;69.49
22753;BME280;11543;43.144;24.684;2023-03-20T05:57:30;99091.22;;;8.47;69.23
22753;BME280;11543;43.144;24.684;2023-03-20T05:59:55;99091.09;;;8.49;69.16
22753;BME280;11543;43.144;24.684;2023-03-20T06:02:21;99087.88;;;8.55;68.69
22753;BME280;11543;43.144;24.684;2023-03-20T06:04:46;99085.34;;;8.63;68.62
22753;BME280;11543;43.144;24.684;2023-03-20T06:07:12;99090.75;;;8.73;68.68
22753;BME280;11543;43.144;24.684;2023-03-20T06:09:38;99088.38;;;8.79;68.63
22753;BME280;11543;43.144;24.684;2023-03-20T06:12:04;99091.91;;;8.89;68.28
22753;BME280;11543;43.144;24.684;2023-03-20T06:14:30;99074.19;;;8.88;68.23
22753;BME280;11543;43.144;24.684;2023-03-20T06:16:56;99077.84;;;8.97;68.50
22753;BME280;11543;43.144;24.684;2023-03-20T06:19:22;99081.94;;;9.01;68.64
22753;BME280;11543;43.144;24.684;2023-03-20T06:21:48;99097.00;;;9.12;68.51
22753;BME280;11543;43.144;24.684;2023-03-20T06:24:15;99095.59;;;9.08;68.92
22753;BME280;11543;43.144;24.684;2023-03-20T06:26:40;99088.28;;;9.10;68.95
22753;BME280;11543;43.144;24.684;2023-03-20T06:29:06;99093.34;;;9.13;69.10
22753;BME280;11543;43.144;24.684;2023-03-20T06:31:32;99083.34;;;9.15;69.49
22753;BME280;11543;43.144;24.684;2023-03-20T06:33:58;99090.81;;;9.21;69.94
22753;BME280;11543;43.144;24.684;2023-03-20T06:36:23;99089.56;;;9.25;70.57
22753;BME280;11543;43.144;24.684;2023-03-20T06:38:49;99090.81;;;9.31;70.67
22753;BME280;11543;43.144;24.684;2023-03-20T06:41:15;99080.66;;;9.34;70.78
22753;BME280;11543;43.144;24.684;2023-03-20T06:43:40;99085.19;;;9.43;70.77
22753;BME280;11543;43.144;24.684;2023-03-20T06:46:07;99090.66;;;9.51;70.43
22753;BME280;11543;43.144;24.684;2023-03-20T06:48:33;99091.94;;;9.67;70.45
22753;BME280;11543;43.144;24.684;2023-03-20T06:50:59;99100.81;;;9.77;70.73
22753;BME280;11543;43.144;24.684;2023-03-20T06:53:25;99086.56;;;9.76;70.97
22753;BME280;11543;43.144;24.684;2023-03-20T06:55:51;99103.47;;;9.96;71.67
22753;BME280;11543;43.144;24.684;2023-03-20T06:58:17;99101.88;;;10.03;72.06
22753;BME280;11543;43.144;24.684;2023-03-20T07:00:43;99099.31;;;10.11;71.99
22753;BME280;11543;43.144;24.684;2023-03-20T07:03:09;99105.94;;;10.27;71.61
22753;BME280;11543;43.144;24.684;2023-03-20T07:05:36;99099.38;;;10.39;71.02
22753;BME280;11543;43.144;24.684;2023-03-20T07:08:02;99097.53;;;10.49;71.09
22753;BME280;11543;43.144;24.684;2023-03-20T07:10:30;99100.13;;;10.68;70.15
22753;BME280;11543;43.144;24.684;2023-03-20T07:12:56;99089.88;;;10.81;69.86
22753;BME280;11543;43.144;24.684;2023-03-20T07:15:21;99098.09;;;10.98;69.54
22753;BME280;11543;43.144;24.684;2023-03-20T07:17:47;99090.22;;;11.14;69.18
22753;BME280;11543;43.144;24.684;2023-03-20T07:20:13;99088.16;;;11.26;68.12
22753;BME280;11543;43.144;24.684;2023-03-20T07:22:39;99095.94;;;11.46;67.62
22753;BME280;11543;43.144;24.684;2023-03-20T07:25:08;99078.25;;;11.62;67.32
22753;BME280;11543;43.144;24.684;2023-03-20T07:27:35;99092.53;;;11.80;66.67
22753;BME280;11543;43.144;24.684;2023-03-20T07:30:03;99086.94;;;11.99;65.74
22753;BME280;11543;43.144;24.684;2023-03-20T07:32:29;99077.44;;;12.13;65.01
22753;BME280;11543;43.144;24.684;2023-03-20T07:34:54;99077.22;;;12.24;65.41
22753;BME280;11543;43.144;24.684;2023-03-20T07:37:20;99085.06;;;12.52;64.38
22753;BME280;11543;43.144;24.684;2023-03-20T07:39:45;99074.22;;;12.69;63.50
22753;BME280;11543;43.144;24.684;2023-03-20T07:42:11;99058.44;;;12.83;62.22
22753;BME280;11543;43.144;24.684;2023-03-20T07:44:38;99070.16;;;13.16;61.31
22753;BME280;11543;43.144;24.684;2023-03-20T07:47:04;99086.53;;;13.38;60.95
22753;BME280;11543;43.144;24.684;2023-03-20T07:49:31;99080.66;;;13.51;60.80
22753;BME280;11543;43.144;24.684;2023-03-20T07:51:57;99078.78;;;13.68;59.40
22753;BME280;11543;43.144;24.684;2023-03-20T07:54:23;99072.38;;;13.85;58.89
22753;BME280;11543;43.144;24.684;2023-03-20T07:56:49;99086.84;;;14.17;57.59
22753;BME280;11543;43.144;24.684;2023-03-20T07:59:16;99085.97;;;14.32;57.36
22753;BME280;11543;43.144;24.684;2023-03-20T08:01:41;99070.94;;;14.38;57.35
22753;BME280;11543;43.144;24.684;2023-03-20T08:04:07;99064.69;;;14.46;57.14
22753;BME280;11543;43.144;24.684;2023-03-20T08:06:33;99080.34;;;14.58;56.91
22753;BME280;11543;43.144;24.684;2023-03-20T08:08:58;99057.41;;;14.54;56.45
22753;BME280;11543;43.144;24.684;2023-03-20T08:11:24;99068.84;;;14.64;55.44
22753;BME280;11543;43.144;24.684;2023-03-20T08:13:49;99052.97;;;14.61;55.20
22753;BME280;11543;43.144;24.684;2023-03-20T08:16:15;99070.47;;;14.82;55.24
22753;BME280;11543;43.144;24.684;2023-03-20T08:18:40;99061.13;;;14.92;55.17
22753;BME280;11543;43.144;24.684;2023-03-20T08:21:07;99080.13;;;15.07;54.63
22753;BME280;11543;43.144;24.684;2023-03-20T08:23:32;99068.00;;;15.03;54.55
22753;BME280;11543;43.144;24.684;2023-03-20T08:25:58;99062.88;;;15.08;53.86
22753;BME280;11543;43.144;24.684;2023-03-20T08:28:24;99074.63;;;15.23;53.38
22753;BME280;11543;43.144;24.684;2023-03-20T08:30:49;99051.97;;;15.24;52.57
22753;BME280;11543;43.144;24.684;2023-03-20T08:33:16;99062.38;;;15.36;52.35
22753;BME280;11543;43.144;24.684;2023-03-20T08:35:42;99071.84;;;15.54;51.93
22753;BME280;11543;43.144;24.684;2023-03-20T08:38:14;99069.13;;;15.63;51.86
22753;BME280;11543;43.144;24.684;2023-03-20T08:40:40;99067.19;;;15.71;52.00
22753;BME280;11543;43.144;24.684;2023-03-20T08:43:06;99085.25;;;15.93;51.31
22753;BME280;11543;43.144;24.684;2023-03-20T08:45:32;99077.72;;;16.04;51.20
22753;BME280;11543;43.144;24.684;2023-03-20T08:47:58;99066.16;;;16.10;51.08
22753;BME280;11543;43.144;24.684;2023-03-20T08:50:23;99064.19;;;16.18;51.06
22753;BME280;11543;43.144;24.684;2023-03-20T08:52:49;99051.03;;;16.30;50.92
22753;BME280;11543;43.144;24.684;2023-03-20T08:55:15;99067.31;;;16.60;50.02
22753;BME280;11543;43.144;24.684;2023-03-20T08:57:41;99062.09;;;16.73;50.08
22753;BME280;11543;43.144;24.684;2023-03-20T09:00:09;99052.19;;;16.80;50.26
22753;BME280;11543;43.144;24.684;2023-03-20T09:02:36;99048.59;;;16.94;49.58
22753;BME280;11543;43.144;24.684;2023-03-20T09:05:02;99043.31;;;17.07;49.26
22753;BME280;11543;43.144;24.684;2023-03-20T09:07:28;99030.41;;;17.09;49.13
22753;BME280;11543;43.144;24.684;2023-03-20T09:09:53;99047.00;;;17.36;49.43
22753;BME280;11543;43.144;24.684;2023-03-20T09:12:19;99017.41;;;17.41;48.66
22753;BME280;11543;43.144;24.684;2023-03-20T09:14:44;99028.38;;;17.54;48.36
22753;BME280;11543;43.144;24.684;2023-03-20T09:17:10;99024.78;;;17.68;47.67
22753;BME280;11543;43.144;24.684;2023-03-20T09:19:35;99032.22;;;17.88;47.07
22753;BME280;11543;43.144;24.684;2023-03-20T09:22:04;99023.28;;;17.94;47.21
22753;BME280;11543;43.144;24.684;2023-03-20T09:24:30;99037.19;;;18.12;47.22
22753;BME280;11543;43.144;24.684;2023-03-20T09:26:57;99012.13;;;18.10;47.17
22753;BME280;11543;43.144;24.684;2023-03-20T09:29:22;99013.91;;;18.24;46.97
22753;BME280;11543;43.144;24.684;2023-03-20T09:31:49;99012.78;;;18.46;46.78
22753;BME280;11543;43.144;24.684;2023-03-20T09:34:14;99011.44;;;18.70;45.77
22753;BME280;11543;43.144;24.684;2023-03-20T09:36:44;99019.03;;;18.88;45.32
22753;BME280;11543;43.144;24.684;2023-03-20T09:39:10;99005.47;;;18.95;45.10
22753;BME280;11543;43.144;24.684;2023-03-20T09:41:35;98993.34;;;19.04;44.75
22753;BME280;11543;43.144;24.684;2023-03-20T09:49:40;99012.75;;;19.55;44.22
22753;BME280;11543;43.144;24.684;2023-03-20T09:52:30;99006.88;;;19.71;43.88
22753;BME280;11543;43.144;24.684;2023-03-20T09:54:59;98994.31;;;19.84;43.25
22753;BME280;11543;43.144;24.684;2023-03-20T10:00:00;98992.22;;;20.06;43.64
22753;BME280;11543;43.144;24.684;2023-03-20T10:07:43;98981.63;;;20.49;42.60
22753;BME280;11543;43.144;24.684;2023-03-20T10:10:12;98977.41;;;20.59;42.18
22753;BME280;11543;43.144;24.684;2023-03-20T10:12:47;98975.25;;;20.68;42.51
22753;BME280;11543;43.144;24.684;2023-03-20T10:20:36;98978.38;;;21.16;41.28
22753;BME280;11543;43.144;24.684;2023-03-20T10:23:05;98976.66;;;21.22;41.13
22753;BME280;11543;43.144;24.684;2023-03-20T10:25:36;98983.72;;;21.36;41.16
22753;BME280;11543;43.144;24.684;2023-03-20T10:28:11;98984.41;;;21.56;39.88
22753;BME280;11543;43.144;24.684;2023-03-20T10:39:28;98951.59;;;21.88;38.19
22753;BME280;11543;43.144;24.684;2023-03-20T10:41:55;98961.53;;;22.01;38.89
22753;BME280;11543;43.144;24.684;2023-03-20T10:44:33;98954.19;;;22.01;39.12
22753;BME280;11543;43.144;24.684;2023-03-20T10:47:05;98945.09;;;22.07;39.09
22753;BME280;11543;43.144;24.684;2023-03-20T10:49:42;98942.06;;;22.15;39.32
22753;BME280;11543;43.144;24.684;2023-03-20T10:52:12;98936.38;;;22.17;39.25
22753;BME280;11543;43.144;24.684;2023-03-20T10:54:41;98927.34;;;22.35;38.74
22753;BME280;11543;43.144;24.684;2023-03-20T10:57:19;98925.81;;;22.57;37.53
22753;BME280;11543;43.144;24.684;2023-03-20T10:59:49;98943.63;;;22.78;36.94
22753;BME280;11543;43.144;24.684;2023-03-20T11:02:17;98920.88;;;22.66;37.50
22753;BME280;11543;43.144;24.684;2023-03-20T11:04:42;98902.19;;;22.63;37.38
22753;BME280;11543;43.144;24.684;2023-03-20T11:12:48;98909.28;;;23.12;36.48
22753;BME280;11543;43.144;24.684;2023-03-20T11:17:59;98897.50;;;23.23;37.08
22753;BME280;11543;43.144;24.684;2023-03-20T11:20:30;98884.06;;;23.33;36.30
22753;BME280;11543;43.144;24.684;2023-03-20T11:22:58;98887.22;;;23.48;35.13
22753;BME280;11543;43.144;24.684;2023-03-20T11:25:29;98862.19;;;23.33;35.08
22753;BME280;11543;43.144;24.684;2023-03-20T11:27:57;98862.88;;;23.29;35.71
22753;BME280;11543;43.144;24.684;2023-03-20T11:30:42;98858.03;;;23.42;34.77
22753;BME280;11543;43.144;24.684;2023-03-20T11:33:08;98853.63;;;23.53;34.14
22753;BME280;11543;43.144;24.684;2023-03-20T11:35:34;98859.03;;;23.60;34.95
22753;BME280;11543;43.144;24.684;2023-03-20T11:38:17;98861.16;;;23.58;34.15
22753;BME280;11543;43.144;24.684;2023-03-20T11:40:45;98865.44;;;23.54;34.32
22753;BME280;11543;43.144;24.684;2023-03-20T11:43:28;98862.34;;;23.62;34.65
22753;BME280;11543;43.144;24.684;2023-03-20T11:46:01;98861.16;;;23.58;32.68
22753;BME280;11543;43.144;24.684;2023-03-20T11:48:39;98869.03;;;23.66;32.83
22753;BME280;11543;43.144;24.684;2023-03-20T11:51:08;98859.94;;;23.54;33.15
22753;BME280;11543;43.144;24.684;2023-03-20T11:53:39;98854.34;;;23.48;33.50
22753;BME280;11543;43.144;24.684;2023-03-20T11:56:11;98860.22;;;23.64;34.51
22753;BME280;11543;43.144;24.684;2023-03-20T11:58:56;98850.91;;;23.65;33.73
22753;BME280;11543;43.144;24.684;2023-03-20T12:01:24;98837.81;;;23.67;33.56
22753;BME280;11543;43.144;24.684;2023-03-20T12:06:25;98843.75;;;23.87;32.78
22753;BME280;11543;43.144;24.684;2023-03-20T12:08:59;98841.94;;;23.93;32.61
22753;BME280;11543;43.144;24.684;2023-03-20T12:11:45;98844.66;;;24.04;31.43
22753;BME280;11543;43.144;24.684;2023-03-20T12:14:34;98844.19;;;24.07;31.68
22753;BME280;11543;43.144;24.684;2023-03-20T12:23:01;98826.75;;;24.13;31.34
22753;BME280;11543;43.144;24.684;2023-03-20T12:28:39;98835.34;;;24.29;29.63
22753;BME280;11543;43.144;24.684;2023-03-20T12:34:05;98833.94;;;24.55;30.01
22753;BME280;11543;43.144;24.684;2023-03-20T12:36:44;98814.47;;;24.56;29.42
22753;BME280;11543;43.144;24.684;2023-03-20T12:39:14;98808.50;;;24.59;29.27
22753;BME280;11543;43.144;24.684;2023-03-20T12:50:38;98816.00;;;24.81;30.21
22753;BME280;11543;43.144;24.684;2023-03-20T12:58:35;98816.78;;;24.93;28.96
22753;BME280;11543;43.144;24.684;2023-03-20T13:01:29;98813.53;;;24.96;29.27
22753;BME280;11543;43.144;24.684;2023-03-20T13:06:54;98798.06;;;24.90;29.02
22753;BME280;11543;43.144;24.684;2023-03-20T13:09:57;98808.25;;;25.06;29.85
22753;BME280;11543;43.144;24.684;2023-03-20T13:15:40;98799.34;;;25.32;28.98
22753;BME280;11543;43.144;24.684;2023-03-20T13:18:36;98795.16;;;25.47;28.48
22753;BME280;11543;43.144;24.684;2023-03-20T13:21:39;98789.84;;;25.40;28.54
22753;BME280;11543;43.144;24.684;2023-03-20T13:30:06;98773.38;;;25.40;28.61
22753;BME280;11543;43.144;24.684;2023-03-20T13:32:52;98769.78;;;25.39;29.05
22753;BME280;11543;43.144;24.684;2023-03-20T13:38:00;98770.19;;;25.48;29.27
22753;BME280;11543;43.144;24.684;2023-03-20T13:40:30;98761.13;;;25.48;26.95
22753;BME280;11543;43.144;24.684;2023-03-20T13:43:12;98773.06;;;25.58;26.79
22753;BME280;11543;43.144;24.684;2023-03-20T13:45:43;98762.13;;;25.42;26.79
22753;BME280;11543;43.144;24.684;2023-03-20T13:48:23;98760.66;;;25.34;27.79
22753;BME280;11543;43.144;24.684;2023-03-20T13:51:25;98753.16;;;25.13;28.75
22753;BME280;11543;43.144;24.684;2023-03-20T13:56:42;98756.00;;;25.01;29.05
22753;BME280;11543;43.144;24.684;2023-03-20T14:02:39;98758.81;;;24.89;27.46
22753;BME280;11543;43.144;24.684;2023-03-20T14:05:17;98751.16;;;24.91;28.14
22753;BME280;11543;43.144;24.684;2023-03-20T14:07:45;98735.44;;;24.87;28.00
22753;BME280;11543;43.144;24.684;2023-03-20T14:10:34;98746.50;;;24.92;26.95
22753;BME280;11543;43.144;24.684;2023-03-20T14:13:03;98733.03;;;24.90;26.92
22753;BME280;11543;43.144;24.684;2023-03-20T14:15:35;98741.19;;;25.02;27.37
22753;BME280;11543;43.144;24.684;2023-03-20T14:18:11;98735.13;;;25.00;27.51
22753;BME280;11543;43.144;24.684;2023-03-20T14:20:39;98727.38;;;24.97;27.93
22753;BME280;11543;43.144;24.684;2023-03-20T14:23:17;98730.22;;;25.02;27.85
22753;BME280;11543;43.144;24.684;2023-03-20T14:26:04;98720.38;;;25.06;26.33
22753;BME280;11543;43.144;24.684;2023-03-20T14:28:43;98728.31;;;25.19;24.58
22753;BME280;11543;43.144;24.684;2023-03-20T14:31:21;98719.06;;;25.08;25.07
22753;BME280;11543;43.144;24.684;2023-03-20T14:33:56;98723.56;;;25.15;24.83
22753;BME280;11543;43.144;24.684;2023-03-20T14:36:27;98695.94;;;24.88;25.23
22753;BME280;11543;43.144;24.684;2023-03-20T14:50:17;98693.03;;;24.77;26.24
22753;BME280;11543;43.144;24.684;2023-03-20T14:57:44;98683.81;;;24.50;26.36
22753;BME280;11543;43.144;24.684;2023-03-20T15:00:26;98701.44;;;24.54;26.97
22753;BME280;11543;43.144;24.684;2023-03-20T15:03:12;98710.06;;;24.46;26.60
22753;BME280;11543;43.144;24.684;2023-03-20T15:05:39;98672.25;;;24.20;26.40
22753;BME280;11543;43.144;24.684;2023-03-20T15:08:06;98699.75;;;24.36;26.75
22753;BME280;11543;43.144;24.684;2023-03-20T15:10:44;98707.06;;;24.31;27.17
22753;BME280;11543;43.144;24.684;2023-03-20T15:13:12;98704.31;;;24.19;27.46
22753;BME280;11543;43.144;24.684;2023-03-20T15:16:02;98699.69;;;24.20;27.19
22753;BME280;11543;43.144;24.684;2023-03-20T15:18:28;98690.00;;;24.00;27.45
22753;BME280;11543;43.144;24.684;2023-03-20T15:20:55;98696.31;;;24.01;27.81
22753;BME280;11543;43.144;24.684;2023-03-20T15:23:22;98689.47;;;23.87;28.57
22753;BME280;11543;43.144;24.684;2023-03-20T15:25:48;98685.13;;;23.74;28.85
22753;BME280;11543;43.144;24.684;2023-03-20T15:28:25;98703.81;;;23.77;29.03
22753;BME280;11543;43.144;24.684;2023-03-20T15:30:55;98688.25;;;23.66;28.90
22753;BME280;11543;43.144;24.684;2023-03-20T15:33:41;98691.38;;;23.58;29.09